首页
METAR-TAF:

METAR-TAF

机场 :

克卢日-纳波卡, 罗马尼亚

纬度: 46-47N, 经度: 023-34E, 海拔: 315米

当前天气观测

该预报发布于34分钟前的08:30 UTC
风速6节,风向东转东南,在南转南东之间变化
温度 28°C
湿度 55%
气压 1011 hPa
能见度10公里或以上
1500米以下无云,无积雨云

METAR: LRCL 200830Z 11006KT 080V160 CAVOK 28/18 Q1011

时间: 12:04 (09:04 UTC)

预报

该预报发布于4小时和4分钟前的05:00 UTC
预报有效从20日的 06点(UTC)到 20日的 15点(UTC)
风速8节,风向
能见度10公里或以上
散云层高于5000英尺
几率 40% :
短暂存在
从 20日的 12点(UTC)到 20日的 15点(UTC)
能見度: 5000
散云层高于3500英尺, 积雨云.
雷暴, 雨,

TAF: LRCL 200500Z 2006/2015 10008KT 9999 SCT050 PROB40 TEMPO 2012/2015 5000 TSRA SCT035CB

超过4000个机场的气象观测和天气预报(METAR&TAF报告)。

可查询的气象台以黄色和红色小点在地图上表示。

将鼠标移到小点上方,可查看气象台名称。

然后点击查看天气观测和预报。

如需切换地图:点击带黑十字的绿色按钮放大地图;点击带横线的绿色按钮缩小地图;或者点击绿色箭头查看邻近地区的地图。


METAR-TAF: